Time;durP1;ratioP1;P1;durP2;ratioP2;P2;SDS_P1;SDS_P2;PMS_P1;PMS_P2;Temp;Humidity;BMP_temperature;BMP_pressure;BME280_temperature;BME280_humidity;BME280_pressure;Samples;Min_cycle;Max_cycle;Signal;HPM_P1;HPM_P2
2024/03/07 00:00:59;;;;;;;1.85;0.80;;;8.20;99.90;;;;;;4970826;28;21431;-79
2024/03/07 00:03:25;;;;;;;2.83;1.10;;;8.20;99.90;;;;;;4972365;28;20034;-79
2024/03/07 00:05:51;;;;;;;1.85;0.73;;;8.20;99.90;;;;;;4971898;28;20473;-79
2024/03/07 00:08:17;;;;;;;4.57;1.20;;;8.20;99.90;;;;;;4973009;28;20057;-79
2024/03/07 00:10:44;;;;;;;2.47;1.13;;;8.20;99.90;;;;;;4973884;28;20654;-78
2024/03/07 00:13:10;;;;;;;2.90;1.17;;;8.10;99.90;;;;;;4974511;28;20538;-78
2024/03/07 00:15:36;;;;;;;3.63;1.10;;;8.00;99.90;;;;;;4975446;28;20053;-79
2024/03/07 00:18:02;;;;;;;2.58;1.23;;;7.90;99.90;;;;;;4975009;28;20392;-79
2024/03/07 00:20:28;;;;;;;2.47;1.10;;;8.00;99.90;;;;;;4977778;28;20034;-79
2024/03/07 00:22:53;;;;;;;3.33;1.17;;;8.00;99.90;;;;;;4976266;28;20058;-79
2024/03/07 00:25:19;;;;;;;2.85;1.08;;;7.90;99.90;;;;;;4976337;28;20042;-79
2024/03/07 00:27:45;;;;;;;5.10;1.20;;;7.90;99.90;;;;;;4977101;28;20045;-79
2024/03/07 00:30:13;;;;;;;3.67;1.23;;;7.80;99.90;;;;;;4975321;28;20485;-79
2024/03/07 00:32:40;;;;;;;2.83;1.27;;;7.90;99.90;;;;;;4974835;28;20061;-79
2024/03/07 00:35:08;;;;;;;2.83;1.30;;;7.80;99.90;;;;;;4978067;28;20109;-79
2024/03/07 00:37:34;;;;;;;4.43;1.30;;;7.90;99.90;;;;;;4976278;28;20080;-79
2024/03/07 00:39:59;;;;;;;4.40;1.35;;;7.90;99.90;;;;;;4975939;28;20617;-79
2024/03/07 00:42:27;;;;;;;3.17;1.38;;;8.00;99.90;;;;;;4975959;28;20121;-79
2024/03/07 00:44:53;;;;;;;3.55;1.27;;;8.00;99.90;;;;;;4977263;28;20065;-79
2024/03/07 00:47:18;;;;;;;3.47;1.10;;;8.00;99.90;;;;;;4974048;28;20670;-79
2024/03/07 00:49:48;;;;;;;4.50;1.75;;;8.00;99.90;;;;;;4976765;28;20121;-79
2024/03/07 00:52:14;;;;;;;4.10;1.48;;;8.10;99.90;;;;;;4977218;28;20049;-79
2024/03/07 00:54:40;;;;;;;4.03;1.55;;;8.10;99.90;;;;;;4975881;28;20035;-79
2024/03/07 00:57:07;;;;;;;3.28;1.40;;;8.00;99.90;;;;;;4975437;28;20034;-79
2024/03/07 00:59:33;;;;;;;2.67;1.17;;;7.90;99.90;;;;;;4974701;28;20034;-79
2024/03/07 01:01:59;;;;;;;3.42;1.30;;;7.90;99.90;;;;;;4973985;28;20046;-79
2024/03/07 01:04:30;;;;;;;3.88;1.40;;;7.90;99.90;;;;;;4974284;28;20045;-79
2024/03/07 01:06:57;;;;;;;3.20;1.30;;;7.80;99.90;;;;;;4977959;28;20030;-79
2024/03/07 01:09:23;;;;;;;5.43;1.38;;;7.90;99.90;;;;;;4975278;28;20031;-79
2024/03/07 01:11:49;;;;;;;3.03;1.52;;;7.90;99.90;;;;;;4968555;28;20066;-78
2024/03/07 01:14:15;;;;;;;3.35;1.50;;;7.80;99.90;;;;;;4972668;28;20034;-79
2024/03/07 01:16:42;;;;;;;5.05;1.67;;;7.90;99.90;;;;;;4973623;28;20390;-79
2024/03/07 01:19:08;;;;;;;3.10;1.30;;;8.00;99.90;;;;;;4974081;28;20053;-79
2024/03/07 01:21:34;;;;;;;3.45;1.45;;;8.00;99.90;;;;;;4975374;28;20097;-79
2024/03/07 01:24:03;;;;;;;4.05;1.65;;;8.10;99.90;;;;;;4972096;28;20489;-79
2024/03/07 01:26:29;;;;;;;3.08;1.50;;;8.10;99.90;;;;;;4975003;28;20042;-79
2024/03/07 01:28:58;;;;;;;4.82;1.73;;;8.00;99.90;;;;;;4976351;28;20034;-79
2024/03/07 01:31:23;;;;;;;2.72;1.30;;;8.00;99.90;;;;;;4974829;28;20060;-79
2024/03/07 01:33:49;;;;;;;3.97;1.55;;;7.80;99.90;;;;;;4974873;28;20042;-79
2024/03/07 01:36:15;;;;;;;3.30;1.40;;;7.80;99.90;;;;;;4976425;28;20042;-78
2024/03/07 01:38:41;;;;;;;3.30;1.35;;;7.70;99.90;;;;;;4973330;28;20121;-79
2024/03/07 01:41:06;;;;;;;2.85;1.63;;;7.70;99.90;;;;;;4975878;28;20038;-79
2024/03/07 01:43:32;;;;;;;3.88;1.60;;;7.80;99.90;;;;;;4974496;28;20053;-79
2024/03/07 01:45:58;;;;;;;3.28;1.48;;;7.80;99.90;;;;;;4975000;28;20046;-79
2024/03/07 01:48:28;;;;;;;2.88;1.45;;;7.80;99.90;;;;;;4974530;28;20046;-79
2024/03/07 01:51:00;;;;;;;3.83;1.45;;;7.80;99.90;;;;;;4974243;28;20045;-79
2024/03/07 01:53:27;;;;;;;3.47;1.48;;;7.80;99.90;;;;;;4974021;28;20335;-79
2024/03/07 01:55:56;;;;;;;3.05;1.50;;;7.80;99.90;;;;;;4973330;28;20042;-79
2024/03/07 01:58:22;;;;;;;4.28;1.52;;;7.80;99.90;;;;;;4975300;28;20042;-79
2024/03/07 02:00:47;;;;;;;4.25;2.40;;;7.80;99.90;;;;;;4972968;28;20088;-79
2024/03/07 02:03:17;;;;;;;3.08;1.48;;;7.70;99.90;;;;;;4973015;28;20050;-79
2024/03/07 02:05:43;;;;;;;2.67;1.17;;;7.70;99.90;;;;;;4976150;28;20666;-79
2024/03/07 02:08:08;;;;;;;1.90;0.90;;;7.70;99.90;;;;;;4973560;28;20050;-79
2024/03/07 02:10:34;;;;;;;3.50;1.30;;;7.80;99.90;;;;;;4972796;28;20058;-79
2024/03/07 02:13:00;;;;;;;3.38;1.58;;;7.60;99.90;;;;;;4975286;28;20122;-79
2024/03/07 02:15:27;;;;;;;3.08;1.45;;;7.50;99.90;;;;;;4973835;28;20596;-79
2024/03/07 02:17:53;;;;;;;5.03;1.20;;;7.60;99.90;;;;;;4972909;28;20038;-79
2024/03/07 02:20:19;;;;;;;4.85;1.48;;;7.60;99.90;;;;;;4974635;28;20109;-79
2024/03/07 02:22:44;;;;;;;3.38;1.33;;;7.70;99.90;;;;;;4973305;28;20050;-79
2024/03/07 02:25:10;;;;;;;4.00;1.50;;;7.70;99.90;;;;;;4974483;28;20041;-79
2024/03/07 02:27:36;;;;;;;3.10;1.38;;;7.70;99.90;;;;;;4974631;28;20393;-79
2024/03/07 02:30:03;;;;;;;2.72;0.88;;;7.70;99.90;;;;;;4975016;28;21384;-79
2024/03/07 02:32:28;;;;;;;2.03;0.93;;;7.70;99.90;;;;;;4973880;28;20536;-79
2024/03/07 02:34:54;;;;;;;1.85;0.77;;;7.70;99.90;;;;;;4973432;28;20042;-79
2024/03/07 02:37:19;;;;;;;2.38;1.05;;;7.80;99.90;;;;;;4975500;28;20489;-79
2024/03/07 02:39:45;;;;;;;2.38;1.15;;;7.70;99.90;;;;;;4972338;28;20121;-79
2024/03/07 02:42:11;;;;;;;1.50;0.80;;;7.80;99.90;;;;;;4974699;28;20121;-79
2024/03/07 02:44:38;;;;;;;3.85;1.33;;;7.80;99.90;;;;;;4974579;28;20370;-79
2024/03/07 02:47:07;;;;;;;2.42;1.20;;;7.80;99.90;;;;;;4972664;28;20034;-79
2024/03/07 02:49:33;;;;;;;2.33;1.10;;;7.70;99.90;;;;;;4972311;28;20031;-79
2024/03/07 02:51:59;;;;;;;5.75;1.38;;;7.80;99.90;;;;;;4975107;28;20041;-79
2024/03/07 02:54:24;;;;;;;2.67;1.15;;;7.80;99.90;;;;;;4972262;28;20547;-79
2024/03/07 02:56:50;;;;;;;4.20;1.58;;;7.80;99.90;;;;;;4972739;28;20038;-79
2024/03/07 02:59:19;;;;;;;2.65;1.10;;;7.60;99.90;;;;;;4975709;28;20150;-79
2024/03/07 03:01:44;;;;;;;4.78;1.13;;;7.60;99.90;;;;;;4972814;28;20523;-79
2024/03/07 03:04:10;;;;;;;1.52;0.82;;;7.60;99.90;;;;;;4971568;28;20038;-79
2024/03/07 03:06:36;;;;;;;2.55;1.00;;;7.70;99.90;;;;;;4973371;28;20030;-79
2024/03/07 03:09:04;;;;;;;2.63;1.00;;;7.70;99.90;;;;;;4973857;28;20042;-79
2024/03/07 03:11:30;;;;;;;1.77;1.02;;;7.60;99.90;;;;;;4972696;28;20309;-79
2024/03/07 03:13:56;;;;;;;2.40;1.05;;;7.70;99.90;;;;;;4974568;28;20900;-79
2024/03/07 03:16:21;;;;;;;5.05;1.10;;;7.50;99.90;;;;;;4971344;28;20042;-79
2024/03/07 03:18:48;;;;;;;2.22;1.10;;;7.60;99.90;;;;;;4974921;28;20101;-79
2024/03/07 03:21:15;;;;;;;3.80;0.77;;;7.60;99.90;;;;;;4972269;28;20404;-79
2024/03/07 03:23:41;;;;;;;3.45;1.08;;;7.50;99.90;;;;;;4971824;28;20065;-79
2024/03/07 03:26:06;;;;;;;3.50;1.10;;;7.60;99.90;;;;;;4974322;28;20161;-79
2024/03/07 03:28:32;;;;;;;2.92;1.00;;;7.70;99.90;;;;;;4972595;28;20030;-79
2024/03/07 03:30:58;;;;;;;3.20;1.00;;;7.70;99.90;;;;;;4971936;28;20046;-79
2024/03/07 03:33:23;;;;;;;2.33;1.05;;;7.70;99.90;;;;;;4974699;28;20072;-79
2024/03/07 03:35:49;;;;;;;2.03;0.90;;;7.60;99.90;;;;;;4972298;28;20062;-79
2024/03/07 03:38:15;;;;;;;3.55;1.00;;;7.70;99.90;;;;;;4971760;28;20034;-79
2024/03/07 03:40:41;;;;;;;3.25;1.17;;;7.60;99.90;;;;;;4974828;28;20399;-79
2024/03/07 03:43:07;;;;;;;3.08;1.23;;;7.60;99.90;;;;;;4971830;28;20078;-79
2024/03/07 03:45:33;;;;;;;2.05;0.90;;;7.60;99.90;;;;;;4967900;28;20031;-79
2024/03/07 03:47:59;;;;;;;2.40;1.00;;;7.60;99.90;;;;;;4973373;28;20035;-79
2024/03/07 03:50:25;;;;;;;1.27;0.80;;;7.60;99.90;;;;;;4972214;28;20030;-78
2024/03/07 03:52:51;;;;;;;1.88;0.82;;;7.60;99.90;;;;;;4973132;28;20093;-79
2024/03/07 03:55:17;;;;;;;1.75;0.88;;;7.50;99.90;;;;;;4973500;28;20054;-79
2024/03/07 03:57:44;;;;;;;2.35;1.05;;;7.40;99.90;;;;;;4972711;28;20102;-79
2024/03/07 04:00:14;;;;;;;3.50;0.90;;;7.50;99.90;;;;;;4970917;28;20038;-79
2024/03/07 04:02:47;;;;;;;2.75;0.90;;;7.50;99.90;;;;;;4969832;28;20589;-79
2024/03/07 04:05:14;;;;;;;1.80;0.80;;;7.40;99.90;;;;;;4969386;28;20124;-79
2024/03/07 04:07:41;;;;;;;1.90;0.88;;;7.50;99.90;;;;;;4967978;28;20052;-79
2024/03/07 04:10:08;;;;;;;2.10;0.95;;;7.40;99.90;;;;;;4964961;28;20077;-79
2024/03/07 04:12:46;;;;;;;1.85;0.95;;;7.30;99.90;;;;;;4968882;28;20038;-79
2024/03/07 04:15:16;;;;;;;2.95;1.33;;;7.20;99.90;;;;;;4967650;28;20267;-79
2024/03/07 04:17:42;;;;;;;2.42;1.00;;;7.30;99.90;;;;;;4964971;28;20066;-79
2024/03/07 04:20:11;;;;;;;3.05;0.98;;;7.40;99.90;;;;;;4966555;28;20046;-79
2024/03/07 04:22:40;;;;;;;2.00;0.82;;;7.40;99.90;;;;;;4964894;28;20112;-79
2024/03/07 04:25:07;;;;;;;2.67;1.00;;;7.50;99.90;;;;;;4968406;28;20026;-79
2024/03/07 04:27:36;;;;;;;1.85;1.40;;;7.30;99.90;;;;;;4968332;28;20042;-79
2024/03/07 04:30:22;;;;;;;2.35;0.93;;;7.30;99.90;;;;;;4968646;28;20034;-79
2024/03/07 04:32:48;;;;;;;3.15;0.98;;;7.50;99.90;;;;;;4968524;28;20049;-79
2024/03/07 04:35:14;;;;;;;4.30;0.82;;;7.50;99.90;;;;;;4970877;28;20023;-79
2024/03/07 04:37:40;;;;;;;1.67;0.75;;;7.50;99.90;;;;;;4973019;28;20034;-79
2024/03/07 04:40:15;;;;;;;1.63;0.80;;;7.50;99.90;;;;;;4968482;28;20030;-78
2024/03/07 04:42:44;;;;;;;2.17;0.90;;;7.40;99.90;;;;;;4968866;28;20513;-78
2024/03/07 04:45:12;;;;;;;2.33;0.95;;;7.40;99.90;;;;;;4968257;28;20026;-79
2024/03/07 04:47:39;;;;;;;2.33;1.25;;;7.50;99.90;;;;;;4972902;28;20038;-79
2024/03/07 04:50:05;;;;;;;2.85;1.30;;;7.50;99.90;;;;;;4971304;28;20499;-79
2024/03/07 04:52:31;;;;;;;2.65;0.90;;;7.50;99.90;;;;;;4968131;28;21264;-78
2024/03/07 04:54:56;;;;;;;1.50;0.80;;;7.40;99.90;;;;;;4968256;28;20038;-78
2024/03/07 04:57:22;;;;;;;2.08;0.82;;;7.40;99.90;;;;;;4968120;28;20563;-78
2024/03/07 04:59:48;;;;;;;2.30;0.80;;;7.30;99.90;;;;;;4967990;28;20502;-79
2024/03/07 05:02:13;;;;;;;3.28;1.17;;;7.30;99.90;;;;;;4969110;28;20129;-78
2024/03/07 05:04:39;;;;;;;1.73;0.70;;;7.30;99.90;;;;;;4967256;28;20022;-79
2024/03/07 05:07:05;;;;;;;1.40;0.65;;;7.30;99.90;;;;;;4968749;28;20034;-79
2024/03/07 05:09:33;;;;;;;2.30;0.90;;;7.20;99.90;;;;;;4968506;28;20030;-79
2024/03/07 05:11:59;;;;;;;1.63;0.77;;;7.20;99.90;;;;;;4968484;28;20565;-79
2024/03/07 05:14:27;;;;;;;1.05;0.55;;;7.30;99.90;;;;;;4970049;28;20113;-78
2024/03/07 05:17:05;;;;;;;2.22;0.73;;;7.40;99.90;;;;;;4968578;28;20039;-78
2024/03/07 05:19:32;;;;;;;2.42;0.70;;;7.30;99.90;;;;;;4967392;28;20041;-79
2024/03/07 05:21:58;;;;;;;3.00;1.30;;;7.30;99.90;;;;;;4967863;28;20057;-78
2024/03/07 05:24:24;;;;;;;2.75;1.25;;;7.30;99.90;;;;;;4970020;28;20420;-79
2024/03/07 05:26:50;;;;;;;3.30;1.20;;;7.20;99.90;;;;;;4968339;28;20096;-79
2024/03/07 05:29:17;;;;;;;2.30;0.88;;;7.10;99.90;;;;;;4967325;28;20545;-79
2024/03/07 05:31:49;;;;;;;2.33;1.25;;;7.00;99.90;;;;;;4969378;28;20080;-79
2024/03/07 05:34:18;;;;;;;3.53;1.25;;;7.00;99.90;;;;;;4969833;28;20085;-77
2024/03/07 05:36:47;;;;;;;2.00;0.88;;;6.90;99.90;;;;;;4967439;28;20042;-77
2024/03/07 05:39:14;;;;;;;3.78;1.35;;;6.90;99.90;;;;;;4970265;28;20504;-77
2024/03/07 05:41:42;;;;;;;2.75;1.13;;;7.00;99.90;;;;;;4967037;28;20046;-77
2024/03/07 05:44:08;;;;;;;1.70;0.80;;;6.90;99.90;;;;;;4968235;28;20038;-79
2024/03/07 05:46:41;;;;;;;2.13;0.90;;;6.90;99.90;;;;;;4967503;28;20034;-80
2024/03/07 05:49:10;;;;;;;4.43;1.10;;;6.90;99.90;;;;;;4968928;28;20404;-78
2024/03/07 05:51:36;;;;;;;3.47;1.15;;;7.00;99.90;;;;;;4966811;28;20480;-77
2024/03/07 05:54:06;;;;;;;2.70;1.17;;;7.10;99.90;;;;;;4967848;28;20031;-80
2024/03/07 05:56:35;;;;;;;2.25;1.10;;;7.10;99.90;;;;;;4966968;28;20045;-77
2024/03/07 05:59:04;;;;;;;1.80;0.75;;;6.80;99.90;;;;;;4967512;28;23338;-78
2024/03/07 06:01:34;;;;;;;6.90;1.20;;;6.80;99.90;;;;;;4967977;28;20117;-77
2024/03/07 06:04:00;;;;;;;1.73;0.80;;;6.80;99.90;;;;;;4968227;28;20484;-77
2024/03/07 06:06:27;;;;;;;2.40;1.02;;;6.90;99.90;;;;;;4966391;28;20424;-77
2024/03/07 06:08:53;;;;;;;2.35;1.05;;;6.90;99.90;;;;;;4967073;28;20034;-78
2024/03/07 06:11:21;;;;;;;1.75;0.60;;;6.90;99.90;;;;;;4966351;28;20061;-77
2024/03/07 06:13:50;;;;;;;4.53;1.17;;;7.00;99.90;;;;;;4967209;28;20073;-77
2024/03/07 06:16:15;;;;;;;2.20;0.80;;;7.00;99.90;;;;;;4966078;28;20038;-78
2024/03/07 06:18:42;;;;;;;5.45;2.08;;;7.10;99.90;;;;;;4976134;28;20469;-80
2024/03/07 06:21:08;;;;;;;5.28;3.00;;;7.10;99.90;;;;;;4971770;28;20077;-81
2024/03/07 06:23:34;;;;;;;22.83;16.52;;;7.00;99.90;;;;;;4969589;28;20039;-80
2024/03/07 06:26:00;;;;;;;10.25;7.15;;;7.00;99.90;;;;;;4972606;28;20030;-80
2024/03/07 06:28:30;;;;;;;7.97;5.40;;;7.10;99.90;;;;;;4951699;28;20125;-80
2024/03/07 06:30:55;;;;;;;7.20;5.82;;;7.20;99.90;;;;;;4970263;28;20045;-80
2024/03/07 06:33:21;;;;;;;6.10;3.35;;;7.20;99.90;;;;;;4972893;28;20038;-80
2024/03/07 06:35:48;;;;;;;4.60;2.70;;;7.30;99.90;;;;;;4975778;28;20041;-79
2024/03/07 06:38:14;;;;;;;3.80;2.10;;;7.30;99.90;;;;;;4973753;28;20033;-79
2024/03/07 06:40:40;;;;;;;3.58;2.28;;;7.40;99.90;;;;;;4972314;28;20034;-79
2024/03/07 06:43:09;;;;;;;3.67;1.65;;;7.30;99.90;;;;;;4971984;28;20037;-79
2024/03/07 06:45:36;;;;;;;3.95;2.05;;;7.20;99.90;;;;;;4970208;28;21610;-79
2024/03/07 06:48:03;;;;;;;4.88;2.08;;;7.30;99.90;;;;;;4967527;28;20060;-79
2024/03/07 06:50:29;;;;;;;4.35;1.40;;;7.30;99.90;;;;;;4965836;28;22307;-79
2024/03/07 06:52:56;;;;;;;2.95;1.20;;;7.20;99.90;;;;;;4966122;28;20060;-79
2024/03/07 06:55:21;;;;;;;4.47;1.50;;;7.20;99.90;;;;;;4968555;28;20117;-78
2024/03/07 06:57:48;;;;;;;6.25;2.13;;;7.10;99.90;;;;;;4968240;28;20130;-78
2024/03/07 07:00:21;;;;;;;4.97;1.92;;;7.10;99.90;;;;;;4976077;28;20039;-78
2024/03/07 07:02:48;;;;;;;2.35;1.23;;;7.40;99.90;;;;;;4969122;28;20046;-78
2024/03/07 07:05:18;;;;;;;2.60;1.17;;;7.40;99.90;;;;;;4966438;28;20038;-80
2024/03/07 07:07:44;;;;;;;2.80;1.42;;;7.50;99.90;;;;;;4966988;28;20026;-81
2024/03/07 07:10:17;;;;;;;2.67;1.25;;;7.50;99.90;;;;;;4968879;28;20140;-80
2024/03/07 07:12:45;;;;;;;2.38;1.00;;;7.50;99.90;;;;;;4968685;28;20484;-82
2024/03/07 07:15:12;;;;;;;4.75;1.35;;;7.40;99.90;;;;;;4968835;28;20170;-80
2024/03/07 07:17:38;;;;;;;2.50;1.23;;;7.40;99.90;;;;;;4968723;28;20026;-81
2024/03/07 07:20:10;;;;;;;5.78;1.67;;;7.40;99.90;;;;;;4967194;28;20042;-77
2024/03/07 07:22:38;;;;;;;4.43;2.38;;;7.50;99.90;;;;;;4961479;28;20042;-77
2024/03/07 07:25:05;;;;;;;7.13;2.03;;;7.60;99.90;;;;;;4965654;28;20388;-80
2024/03/07 07:27:34;;;;;;;4.63;2.05;;;7.70;99.90;;;;;;4965831;28;20053;-82
2024/03/07 07:30:00;;;;;;;4.85;2.28;;;7.90;99.90;;;;;;4967307;28;20118;-77
2024/03/07 07:32:27;;;;;;;3.40;1.75;;;7.90;99.90;;;;;;4966057;28;20449;-78
2024/03/07 07:34:54;;;;;;;7.15;3.55;;;7.90;99.90;;;;;;4964931;28;20033;-78
2024/03/07 07:37:19;;;;;;;7.32;4.20;;;7.90;99.90;;;;;;4969579;28;20440;-79
2024/03/07 07:39:46;;;;;;;4.95;2.97;;;7.80;99.90;;;;;;4969285;28;20065;-78
2024/03/07 07:42:11;;;;;;;4.57;2.20;;;7.80;99.90;;;;;;4970273;28;20121;-78
2024/03/07 07:44:37;;;;;;;4.20;1.95;;;7.90;99.90;;;;;;4966986;28;21442;-78
2024/03/07 07:47:03;;;;;;;4.75;2.20;;;7.90;99.90;;;;;;4970373;28;20416;-78
2024/03/07 07:49:28;;;;;;;5.20;2.60;;;8.10;99.90;;;;;;4968795;28;20026;-78
2024/03/07 07:51:54;;;;;;;4.85;2.00;;;8.10;99.90;;;;;;4967761;28;20039;-78
2024/03/07 07:54:21;;;;;;;9.63;2.20;;;8.00;99.90;;;;;;4970215;28;20578;-77
2024/03/07 07:56:47;;;;;;;6.40;3.67;;;7.70;99.90;;;;;;4968520;28;20026;-77
2024/03/07 07:59:13;;;;;;;4.05;1.55;;;8.00;99.90;;;;;;4969257;28;20026;-76
2024/03/07 08:01:39;;;;;;;4.32;2.05;;;8.10;99.90;;;;;;4968617;28;20085;-77
2024/03/07 08:04:05;;;;;;;8.68;4.60;;;8.20;99.90;;;;;;4967040;28;20544;-77
2024/03/07 08:06:31;;;;;;;5.13;2.28;;;8.30;99.90;;;;;;4968743;28;20045;-77
2024/03/07 08:08:56;;;;;;;4.22;1.60;;;8.20;99.90;;;;;;4969236;28;20563;-77
2024/03/07 08:11:22;;;;;;;4.72;1.95;;;8.10;99.90;;;;;;4970990;28;20594;-77
2024/03/07 08:13:50;;;;;;;19.27;8.82;;;8.30;99.90;;;;;;4972016;28;20563;-79
2024/03/07 08:16:16;;;;;;;6.68;3.17;;;8.50;99.90;;;;;;4972849;28;20046;-79
2024/03/07 08:18:42;;;;;;;6.90;1.75;;;8.50;99.90;;;;;;4971710;28;20039;-79
2024/03/07 08:21:11;;;;;;;10.68;3.70;;;8.40;99.90;;;;;;4971593;28;20077;-79
2024/03/07 08:23:37;;;;;;;4.60;2.17;;;8.40;99.90;;;;;;4973024;28;20563;-79
2024/03/07 08:26:05;;;;;;;3.72;1.70;;;8.50;99.90;;;;;;4971055;28;20034;-79
2024/03/07 08:28:31;;;;;;;3.15;1.33;;;8.40;99.90;;;;;;4972032;28;20034;-79
2024/03/07 08:30:57;;;;;;;5.15;1.30;;;8.50;99.90;;;;;;4972278;28;20042;-78
2024/03/07 08:33:22;;;;;;;2.47;1.35;;;8.50;99.90;;;;;;4970912;28;20039;-78
2024/03/07 08:35:49;;;;;;;4.00;1.20;;;8.60;99.90;;;;;;4971504;28;20052;-79
2024/03/07 08:38:16;;;;;;;3.72;1.10;;;8.50;99.90;;;;;;4971745;28;20118;-79
2024/03/07 08:40:42;;;;;;;2.47;1.10;;;8.60;99.90;;;;;;4970086;28;20035;-78
2024/03/07 08:43:07;;;;;;;2.92;1.40;;;8.60;99.90;;;;;;4970239;28;20700;-79
2024/03/07 08:45:33;;;;;;;3.72;1.38;;;8.70;99.90;;;;;;4972995;28;20034;-79
2024/03/07 08:47:59;;;;;;;2.85;1.40;;;8.60;99.90;;;;;;4971361;28;20049;-79
2024/03/07 08:50:26;;;;;;;3.80;1.02;;;8.90;99.90;;;;;;4970750;28;20042;-79
2024/03/07 08:52:52;;;;;;;4.53;1.13;;;8.90;99.90;;;;;;4972449;28;20026;-79
2024/03/07 08:55:24;;;;;;;3.58;1.40;;;8.80;99.90;;;;;;4971814;28;20018;-78
2024/03/07 08:57:51;;;;;;;2.38;1.00;;;8.70;99.90;;;;;;4971100;28;20085;-76
2024/03/07 09:00:24;;;;;;;2.88;1.10;;;8.60;99.90;;;;;;4970679;28;20089;-79
2024/03/07 09:02:52;;;;;;;1.65;0.90;;;8.80;99.90;;;;;;4969335;28;20049;-79
2024/03/07 09:05:20;;;;;;;3.83;0.90;;;8.80;99.90;;;;;;4970726;28;20065;-79
2024/03/07 09:07:46;;;;;;;1.98;0.77;;;9.00;99.90;;;;;;4972461;28;20612;-78
2024/03/07 09:10:14;;;;;;;2.97;1.23;;;9.00;99.90;;;;;;4971314;28;20057;-78
2024/03/07 09:12:40;;;;;;;5.55;1.60;;;8.90;99.90;;;;;;4969469;28;20734;-78
2024/03/07 09:15:06;;;;;;;2.10;1.10;;;8.90;99.90;;;;;;4968629;28;20034;-79
2024/03/07 09:17:32;;;;;;;3.33;1.52;;;9.10;99.90;;;;;;4971850;28;20517;-76
2024/03/07 09:19:58;;;;;;;4.18;1.20;;;9.10;99.90;;;;;;4971974;28;20038;-78
2024/03/07 09:22:23;;;;;;;3.38;1.10;;;9.10;99.90;;;;;;4968294;28;20041;-79
2024/03/07 09:24:49;;;;;;;2.08;0.80;;;9.30;99.90;;;;;;4972709;28;20038;-79
2024/03/07 09:27:15;;;;;;;8.32;3.53;;;9.40;99.90;;;;;;4970837;28;20485;-79
2024/03/07 09:29:41;;;;;;;28.17;15.23;;;9.20;99.90;;;;;;4969504;28;20045;-77
2024/03/07 09:32:09;;;;;;;16.55;8.30;;;9.20;99.90;;;;;;4972443;28;20038;-76
2024/03/07 09:34:35;;;;;;;10.75;5.80;;;9.40;99.90;;;;;;4972489;28;20181;-77
2024/03/07 09:37:02;;;;;;;12.05;6.78;;;9.50;99.90;;;;;;4971083;28;21245;-76
2024/03/07 09:39:28;;;;;;;8.73;3.70;;;9.70;99.90;;;;;;4971121;28;20043;-77
2024/03/07 09:41:54;;;;;;;4.68;1.75;;;9.70;99.90;;;;;;4970850;28;20077;-76
2024/03/07 09:44:23;;;;;;;2.50;1.15;;;9.30;99.90;;;;;;4970218;28;20031;-76
2024/03/07 09:46:50;;;;;;;6.00;3.47;;;9.50;99.90;;;;;;4971655;28;20030;-76
2024/03/07 09:49:17;;;;;;;3.70;1.92;;;9.80;99.90;;;;;;4969907;28;20049;-76
2024/03/07 09:51:45;;;;;;;2.90;1.25;;;9.80;99.90;;;;;;4969751;28;20050;-78
2024/03/07 09:54:10;;;;;;;4.03;2.50;;;9.70;99.90;;;;;;4972391;28;21366;-76
2024/03/07 09:56:37;;;;;;;4.35;1.15;;;9.90;99.90;;;;;;4969867;28;21571;-79
2024/03/07 09:59:07;;;;;;;3.22;1.20;;;9.80;99.90;;;;;;4969464;28;20031;-78
2024/03/07 10:01:35;;;;;;;1.45;0.90;;;9.80;99.90;;;;;;4972002;28;20117;-79
2024/03/07 10:04:11;;;;;;;3.35;0.85;;;9.90;99.90;;;;;;4971738;28;20068;-76
2024/03/07 10:06:39;;;;;;;2.17;1.00;;;9.80;99.90;;;;;;4968923;28;20117;-77
2024/03/07 10:09:06;;;;;;;1.17;0.50;;;9.80;99.90;;;;;;4971221;28;20030;-79
2024/03/07 10:11:32;;;;;;;2.28;1.20;;;9.90;99.90;;;;;;4969315;28;20069;-78
2024/03/07 10:13:58;;;;;;;5.00;1.77;;;9.90;99.90;;;;;;4971850;28;20088;-76
2024/03/07 10:16:24;;;;;;;160.27;85.70;;;10.00;99.90;;;;;;4969312;28;20050;-77
2024/03/07 10:18:50;;;;;;;46.70;23.73;;;10.00;99.90;;;;;;4970925;28;20096;-79
2024/03/07 10:21:19;;;;;;;18.25;11.10;;;10.00;99.90;;;;;;4965437;28;20082;-77
2024/03/07 10:23:45;;;;;;;9.38;5.25;;;10.20;99.90;;;;;;4968812;28;20046;-78
2024/03/07 10:26:11;;;;;;;5.18;2.25;;;10.40;99.90;;;;;;4969542;28;20551;-77
2024/03/07 10:28:38;;;;;;;3.83;1.55;;;10.40;99.90;;;;;;4971436;28;20030;-77
2024/03/07 10:31:11;;;;;;;2.78;1.30;;;10.50;99.90;;;;;;4969207;28;20042;-77
2024/03/07 10:33:43;;;;;;;3.03;0.90;;;10.50;99.90;;;;;;4967179;28;20440;-76
2024/03/07 10:36:13;;;;;;;2.22;1.00;;;10.60;99.90;;;;;;4966092;28;20038;-76
2024/03/07 10:38:39;;;;;;;2.15;0.80;;;10.40;99.90;;;;;;4971294;28;20040;-76
2024/03/07 10:41:08;;;;;;;2.47;1.17;;;10.60;99.90;;;;;;4968785;28;20473;-77
2024/03/07 10:43:37;;;;;;;4.95;1.33;;;10.80;99.90;;;;;;4966493;28;20420;-76
2024/03/07 10:46:08;;;;;;;1.60;0.70;;;11.00;99.90;;;;;;4970380;28;20520;-76
2024/03/07 10:48:39;;;;;;;2.33;1.20;;;11.00;99.90;;;;;;4968659;28;20034;-77
2024/03/07 10:51:35;;;;;;;1.30;0.60;;;10.90;99.90;;;;;;4967512;28;20030;-76
2024/03/07 10:54:30;;;;;;;2.70;1.00;;;10.80;99.90;;;;;;4965309;28;21352;-76
2024/03/07 10:57:28;;;;;;;3.45;0.90;;;11.10;99.90;;;;;;4970626;28;20061;-77
2024/03/07 11:00:00;;;;;;;2.60;0.90;;;11.30;99.90;;;;;;4968926;28;20022;-76
2024/03/07 11:02:45;;;;;;;3.03;0.95;;;11.40;99.90;;;;;;4969530;28;20045;-76
2024/03/07 11:05:13;;;;;;;3.38;1.00;;;11.40;99.90;;;;;;4970548;28;20490;-77
2024/03/07 11:07:39;;;;;;;3.13;1.20;;;11.10;99.90;;;;;;4968950;28;20069;-76
2024/03/07 11:10:11;;;;;;;2.88;1.30;;;11.10;99.90;;;;;;4969170;28;20054;-77
2024/03/07 11:12:40;;;;;;;1.88;0.82;;;11.20;99.90;;;;;;4970335;28;20369;-77
2024/03/07 11:15:19;;;;;;;4.07;0.98;;;11.40;99.90;;;;;;4970477;28;20026;-77
2024/03/07 11:17:46;;;;;;;1.85;0.80;;;11.30;99.90;;;;;;4969965;28;20065;-77
2024/03/07 11:20:22;;;;;;;4.00;0.88;;;11.10;99.90;;;;;;4968659;28;20619;-77
2024/03/07 11:22:49;;;;;;;2.53;1.10;;;11.20;99.90;;;;;;4968466;28;20049;-76
2024/03/07 11:25:19;;;;;;;2.00;0.80;;;11.40;99.90;;;;;;4968514;28;20043;-77
2024/03/07 11:27:55;;;;;;;2.45;0.75;;;11.70;99.90;;;;;;4969236;28;20038;-77
2024/03/07 11:30:22;;;;;;;42.10;16.80;;;11.60;99.90;;;;;;4968862;28;20034;-77
2024/03/07 11:32:50;;;;;;;27.83;13.35;;;11.60;99.90;;;;;;4967419;28;20064;-79
2024/03/07 11:35:16;;;;;;;31.88;12.13;;;11.70;99.90;;;;;;4967739;28;20034;-78
2024/03/07 11:37:46;;;;;;;356.83;159.32;;;11.80;99.90;;;;;;4969680;28;20026;-77
2024/03/07 11:40:32;;;;;;;97.95;52.28;;;11.90;99.90;;;;;;4966498;28;20117;-77
2024/03/07 11:43:04;;;;;;;31.98;20.90;;;12.00;99.80;;;;;;4957768;28;20058;-77
2024/03/07 11:45:33;;;;;;;15.38;7.78;;;11.70;98.90;;;;;;4974129;28;20429;-78
2024/03/07 11:48:04;;;;;;;18.98;9.18;;;11.70;99.10;;;;;;4970911;28;20038;-77
2024/03/07 11:50:34;;;;;;;23.85;13.95;;;11.70;99.80;;;;;;4971897;28;20104;-77
2024/03/07 11:53:01;;;;;;;9.30;5.68;;;11.70;99.20;;;;;;4975417;28;20290;-77
2024/03/07 11:55:33;;;;;;;5.72;2.67;;;11.70;98.50;;;;;;4973785;28;20041;-77
2024/03/07 11:58:01;;;;;;;14.80;13.45;;;11.80;98.50;;;;;;4971004;28;20034;-77
2024/03/07 12:00:31;;;;;;;7.32;5.65;;;11.70;98.30;;;;;;4971972;28;20520;-78
2024/03/07 12:02:56;;;;;;;8.93;6.80;;;11.80;98.70;;;;;;4971751;28;20050;-77
2024/03/07 12:05:22;;;;;;;11.73;9.32;;;11.80;99.30;;;;;;4970120;28;20039;-77
2024/03/07 12:07:49;;;;;;;5.60;3.53;;;11.80;99.40;;;;;;4971955;28;20477;-76
2024/03/07 12:10:15;;;;;;;8.68;2.97;;;11.90;99.90;;;;;;4972803;28;20140;-77
2024/03/07 12:12:43;;;;;;;2.20;1.02;;;11.90;99.90;;;;;;4970796;28;20448;-77
2024/03/07 12:15:15;;;;;;;2.60;0.90;;;11.80;99.90;;;;;;4974470;28;20030;-78
2024/03/07 12:17:42;;;;;;;2.50;0.82;;;11.70;99.90;;;;;;4972836;28;20030;-77
2024/03/07 12:20:24;;;;;;;1.77;0.98;;;11.70;99.90;;;;;;4967462;28;20766;-77
2024/03/07 12:23:03;;;;;;;4.82;1.60;;;11.70;99.90;;;;;;4968286;28;20126;-77
2024/03/07 12:25:29;;;;;;;2.47;1.42;;;11.70;99.90;;;;;;4966599;28;20436;-77
2024/03/07 12:28:17;;;;;;;2.50;1.02;;;11.90;99.90;;;;;;4970498;28;20670;-78
2024/03/07 12:30:46;;;;;;;3.33;1.55;;;12.00;99.90;;;;;;4969237;28;20081;-77
2024/03/07 12:33:16;;;;;;;1.38;0.80;;;12.00;99.50;;;;;;4969186;28;20097;-78
2024/03/07 12:35:52;;;;;;;4.38;2.40;;;12.10;99.10;;;;;;4969592;28;20666;-78
2024/03/07 12:38:23;;;;;;;2.95;1.40;;;12.10;98.20;;;;;;4968610;28;20459;-77
2024/03/07 12:41:05;;;;;;;1.80;0.85;;;12.10;98.50;;;;;;4967114;28;20038;-77
2024/03/07 12:43:32;;;;;;;1.05;0.50;;;12.10;98.30;;;;;;4967952;28;20163;-77
2024/03/07 12:45:58;;;;;;;3.65;0.60;;;12.10;97.20;;;;;;4969556;28;20089;-78
2024/03/07 12:48:25;;;;;;;6.00;1.40;;;12.00;97.80;;;;;;4967606;28;20030;-77
2024/03/07 12:50:54;;;;;;;1.88;0.60;;;12.00;97.90;;;;;;4967755;28;20043;-77
2024/03/07 12:53:21;;;;;;;2.00;0.82;;;12.10;97.70;;;;;;4969517;28;20034;-76
2024/03/07 12:55:47;;;;;;;1.70;0.70;;;12.10;97.30;;;;;;4969559;28;20042;-76